createdAt,value
2023-05-17T00:00:26.165Z,9.45
2023-05-17T00:02:52.829Z,8.65
2023-05-17T00:05:19.510Z,10.38
2023-05-17T00:07:47.335Z,9.02
2023-05-17T00:10:14.148Z,8.60
2023-05-17T00:12:40.756Z,5.30
2023-05-17T00:15:07.660Z,9.02
2023-05-17T00:17:34.419Z,9.60
2023-05-17T00:20:01.241Z,10.15
2023-05-17T00:22:27.899Z,7.75
2023-05-17T00:24:54.524Z,5.05
2023-05-17T00:27:21.120Z,11.85
2023-05-17T00:29:47.722Z,5.78
2023-05-17T00:32:14.353Z,7.25
2023-05-17T00:34:40.967Z,13.10
2023-05-17T00:37:08.132Z,11.43
2023-05-17T00:39:34.715Z,9.73
2023-05-17T00:42:01.516Z,7.97
2023-05-17T00:44:28.108Z,9.65
2023-05-17T00:46:54.724Z,11.18
2023-05-17T00:49:21.329Z,6.03
2023-05-17T00:51:48.348Z,11.45
2023-05-17T00:54:15.000Z,7.68
2023-05-17T00:56:41.695Z,7.40
2023-05-17T00:59:08.963Z,11.10
2023-05-17T01:01:35.903Z,8.55
2023-05-17T01:04:02.849Z,8.05
2023-05-17T01:06:29.495Z,11.00
2023-05-17T01:08:56.196Z,15.80
2023-05-17T01:11:41.392Z,18.33
2023-05-17T01:14:38.266Z,14.70
2023-05-17T01:17:13.348Z,14.07
2023-05-17T01:20:14.260Z,12.07
2023-05-17T01:23:04.634Z,12.02
2023-05-17T01:25:56.062Z,13.18
2023-05-17T01:28:23.652Z,16.52
2023-05-17T01:30:51.562Z,20.90
2023-05-17T01:33:19.631Z,13.73
2023-05-17T01:35:46.381Z,15.50
2023-05-17T01:38:13.144Z,14.70
2023-05-17T01:40:47.128Z,12.73
2023-05-17T01:43:23.578Z,12.05
2023-05-17T01:46:29.755Z,14.23
2023-05-17T01:49:06.378Z,16.00
2023-05-17T01:51:34.811Z,14.05
2023-05-17T01:56:37.205Z,16.35
2023-05-17T01:59:06.107Z,14.52
2023-05-17T02:01:34.010Z,12.90
2023-05-17T02:04:00.873Z,19.95
2023-05-17T02:06:27.502Z,11.13
2023-05-17T02:08:54.125Z,14.80
2023-05-17T02:11:20.871Z,12.50
2023-05-17T02:13:47.437Z,12.45
2023-05-17T02:16:14.032Z,13.32
2023-05-17T02:18:41.341Z,18.83
2023-05-17T02:21:08.017Z,14.20
2023-05-17T02:23:34.629Z,8.07
2023-05-17T02:26:01.292Z,13.80
2023-05-17T02:28:27.918Z,15.20
2023-05-17T02:30:54.721Z,15.10
2023-05-17T02:33:21.400Z,20.85
2023-05-17T02:35:50.042Z,18.65
2023-05-17T02:40:45.899Z,15.73
2023-05-17T02:43:12.505Z,15.68
2023-05-17T02:45:39.089Z,11.98
2023-05-17T02:48:06.041Z,22.63
2023-05-17T02:50:32.633Z,12.82
2023-05-17T02:52:59.294Z,22.52
2023-05-17T02:55:26.069Z,18.52
2023-05-17T02:57:52.804Z,23.73
2023-05-17T03:00:19.597Z,14.48
2023-05-17T03:02:46.281Z,12.13
2023-05-17T03:05:13.078Z,15.15
2023-05-17T03:07:39.700Z,15.90
2023-05-17T03:10:07.458Z,12.10
2023-05-17T03:12:34.055Z,17.08
2023-05-17T03:15:00.728Z,16.48
2023-05-17T03:17:27.435Z,16.27
2023-05-17T03:19:54.337Z,17.80
2023-05-17T03:22:20.981Z,15.38
2023-05-17T03:24:47.558Z,11.77
2023-05-17T03:27:14.159Z,20.92
2023-05-17T03:29:40.772Z,20.25
2023-05-17T03:32:07.615Z,16.25
2023-05-17T03:34:34.223Z,16.77
2023-05-17T03:37:01.382Z,17.23
2023-05-17T03:39:27.950Z,22.90
2023-05-17T03:41:55.141Z,15.63
2023-05-17T03:44:21.752Z,14.18
2023-05-17T03:46:48.473Z,17.92
2023-05-17T03:49:15.090Z,25.38
2023-05-17T03:51:41.925Z,17.40
2023-05-17T03:54:08.504Z,13.60
2023-05-17T03:56:35.122Z,10.20
2023-05-17T03:59:01.756Z,14.10
2023-05-17T04:01:28.375Z,13.88
2023-05-17T04:03:55.064Z,15.52
2023-05-17T04:06:21.790Z,12.25
2023-05-17T04:08:48.401Z,12.27
2023-05-17T04:11:15.008Z,16.48
2023-05-17T04:13:41.895Z,13.73
2023-05-17T04:16:09.295Z,16.95
2023-05-17T04:18:36.674Z,18.45
2023-05-17T04:21:03.870Z,16.10
2023-05-17T04:23:31.729Z,12.43
2023-05-17T04:25:58.537Z,16.20
2023-05-17T04:28:26.221Z,20.05
2023-05-17T04:30:53.047Z,20.23
2023-05-17T04:33:20.111Z,16.10
2023-05-17T04:35:46.983Z,19.63
2023-05-17T04:38:13.590Z,27.05
2023-05-17T04:40:40.811Z,25.30
2023-05-17T04:43:07.453Z,16.27
2023-05-17T04:45:34.147Z,15.63
2023-05-17T04:48:01.656Z,16.85
2023-05-17T04:50:28.292Z,17.35
2023-05-17T04:52:54.902Z,16.98
2023-05-17T04:55:21.832Z,19.88
2023-05-17T04:57:48.430Z,17.05
2023-05-17T05:00:17.120Z,10.95
2023-05-17T05:02:43.777Z,19.85
2023-05-17T05:05:10.956Z,16.27
2023-05-17T05:07:39.784Z,19.85
2023-05-17T05:10:07.021Z,20.23
2023-05-17T05:12:33.637Z,11.70
2023-05-17T05:15:01.186Z,20.10
2023-05-17T05:17:30.924Z,16.50
2023-05-17T05:19:57.787Z,14.93
2023-05-17T05:22:24.857Z,11.00
2023-05-17T05:24:51.953Z,11.95
2023-05-17T05:27:18.510Z,16.73
2023-05-17T05:29:46.146Z,10.90
2023-05-17T05:32:12.854Z,15.60
2023-05-17T05:34:40.364Z,14.70
2023-05-17T05:37:06.958Z,14.05
2023-05-17T05:39:33.969Z,14.52
2023-05-17T05:42:00.602Z,15.48
2023-05-17T05:44:27.290Z,14.13
2023-05-17T05:46:54.010Z,15.27
2023-05-17T05:49:20.959Z,16.05
2023-05-17T05:51:47.590Z,17.40
2023-05-17T05:54:14.474Z,15.85
2023-05-17T05:56:41.228Z,12.07
2023-05-17T05:59:07.874Z,17.90
2023-05-17T06:01:34.866Z,10.95
2023-05-17T06:04:01.504Z,18.20
2023-05-17T06:06:28.174Z,14.50
2023-05-17T06:08:55.184Z,13.68
2023-05-17T06:11:24.112Z,13.00
2023-05-17T06:13:50.739Z,14.65
2023-05-17T06:16:17.360Z,14.88
2023-05-17T06:18:44.234Z,10.82
2023-05-17T06:21:13.418Z,9.80
2023-05-17T06:23:40.109Z,18.52
2023-05-17T06:26:10.500Z,8.27
2023-05-17T06:28:37.854Z,8.55
2023-05-17T06:31:04.730Z,9.55
2023-05-17T06:33:31.365Z,17.17
2023-05-17T06:35:58.700Z,12.05
2023-05-17T06:38:26.284Z,13.93
2023-05-17T06:40:57.530Z,24.45
2023-05-17T06:43:24.446Z,11.98
2023-05-17T06:45:51.211Z,13.13
2023-05-17T06:48:17.916Z,10.48
2023-05-17T06:50:44.620Z,7.32
2023-05-17T06:53:11.305Z,13.73
2023-05-17T06:55:38.066Z,9.15
2023-05-17T06:58:04.754Z,9.88
2023-05-17T07:00:31.884Z,7.60
2023-05-17T07:02:59.152Z,11.95
2023-05-17T07:05:28.249Z,8.65
2023-05-17T07:07:55.192Z,12.30
2023-05-17T07:10:22.163Z,9.77
2023-05-17T07:12:48.774Z,16.00
2023-05-17T07:15:15.773Z,7.85
2023-05-17T07:17:42.386Z,14.23
2023-05-17T07:20:09.691Z,6.88
2023-05-17T07:22:37.587Z,11.65
2023-05-17T07:25:05.241Z,19.00
2023-05-17T07:27:31.847Z,5.73
2023-05-17T07:29:58.512Z,9.32
2023-05-17T07:32:25.217Z,4.72
2023-05-17T07:34:51.860Z,8.55
2023-05-17T07:37:18.472Z,11.38
2023-05-17T07:39:45.073Z,8.27
2023-05-17T07:42:11.649Z,7.05
2023-05-17T07:44:38.230Z,6.25
2023-05-17T07:47:06.195Z,7.13
2023-05-17T07:49:32.930Z,14.38
2023-05-17T07:51:59.544Z,4.78
2023-05-17T07:54:29.674Z,8.45
2023-05-17T07:56:56.446Z,9.57
2023-05-17T07:59:23.472Z,6.43
2023-05-17T08:01:51.034Z,7.32
2023-05-17T08:04:19.277Z,10.43
2023-05-17T08:06:46.962Z,11.00
2023-05-17T08:09:13.693Z,13.07
2023-05-17T08:11:45.888Z,8.65
2023-05-17T08:14:14.282Z,6.07
2023-05-17T08:16:45.396Z,10.10
2023-05-17T08:19:13.405Z,6.32
2023-05-17T08:21:41.934Z,8.98
2023-05-17T08:24:08.974Z,9.65
2023-05-17T08:26:35.936Z,10.77
2023-05-17T08:29:03.162Z,10.18
2023-05-17T08:31:30.025Z,7.18
2023-05-17T08:33:56.787Z,8.57
2023-05-17T08:36:23.497Z,7.05
2023-05-17T08:38:51.535Z,9.10
2023-05-17T08:41:18.641Z,9.02
2023-05-17T08:43:46.598Z,6.18
2023-05-17T08:46:14.648Z,16.38
2023-05-17T08:48:43.266Z,12.32
2023-05-17T08:51:12.406Z,13.52
2023-05-17T08:53:39.528Z,8.80
2023-05-17T08:56:07.303Z,7.13
2023-05-17T08:58:48.121Z,10.48
2023-05-17T09:01:25.117Z,5.50
2023-05-17T09:03:53.454Z,14.50
2023-05-17T09:06:21.879Z,10.27
2023-05-17T09:08:55.226Z,11.55
2023-05-17T09:11:40.974Z,13.88
2023-05-17T09:14:08.198Z,6.38
2023-05-17T09:16:37.607Z,9.27
2023-05-17T09:19:06.367Z,11.23
2023-05-17T09:21:34.549Z,7.80
2023-05-17T09:26:44.973Z,8.45
2023-05-17T09:29:16.341Z,8.35
2023-05-17T09:31:44.218Z,10.20
2023-05-17T09:34:11.477Z,14.93
2023-05-17T09:36:39.400Z,9.43
2023-05-17T09:39:08.162Z,9.02
2023-05-17T09:41:48.025Z,10.02
2023-05-17T09:44:15.886Z,6.68
2023-05-17T09:46:46.311Z,9.68
2023-05-17T09:49:13.851Z,9.93
2023-05-17T09:51:45.196Z,9.70
2023-05-17T09:54:12.324Z,10.35
2023-05-17T09:56:39.484Z,9.60
2023-05-17T09:59:16.563Z,8.25
2023-05-17T10:01:47.644Z,7.28
2023-05-17T10:04:14.859Z,11.35
2023-05-17T10:09:15.845Z,9.02
2023-05-17T10:11:46.485Z,8.77
2023-05-17T10:14:23.871Z,6.95
2023-05-17T10:16:51.834Z,13.02
2023-05-17T10:19:20.256Z,9.40
2023-05-17T10:24:23.444Z,9.50
2023-05-17T10:26:51.142Z,9.32
2023-05-17T10:29:21.213Z,8.93
2023-05-17T10:31:51.368Z,8.02
2023-05-17T10:34:21.292Z,8.52
2023-05-17T10:36:49.969Z,9.65
2023-05-17T10:39:16.783Z,11.73
2023-05-17T10:41:45.888Z,13.18
2023-05-17T10:44:14.032Z,8.48
2023-05-17T10:46:40.717Z,15.00
2023-05-17T10:49:07.438Z,8.27
2023-05-17T10:51:36.532Z,6.90
2023-05-17T10:54:11.785Z,15.90
2023-05-17T10:56:43.070Z,8.32
2023-05-17T10:59:28.215Z,9.57
2023-05-17T11:02:08.002Z,7.50
2023-05-17T11:04:37.805Z,10.40
2023-05-17T11:07:17.853Z,7.10
2023-05-17T11:09:45.504Z,10.45
2023-05-17T11:12:13.369Z,6.97
2023-05-17T11:14:46.095Z,8.93
2023-05-17T11:17:14.920Z,9.90
2023-05-17T11:20:05.944Z,9.77
2023-05-17T11:22:43.381Z,10.35
2023-05-17T11:25:14.391Z,9.98
2023-05-17T11:27:51.934Z,8.23
2023-05-17T11:30:21.936Z,12.10
2023-05-17T11:32:53.496Z,10.90
2023-05-17T11:35:26.557Z,5.70
2023-05-17T11:37:54.647Z,8.77
2023-05-17T11:40:27.137Z,9.32
2023-05-17T11:43:19.495Z,11.23
2023-05-17T11:45:50.655Z,6.53
2023-05-17T11:48:21.771Z,7.82
2023-05-17T11:50:50.078Z,7.10
2023-05-17T11:53:17.570Z,9.23
2023-05-17T11:55:48.844Z,7.43
2023-05-17T11:58:17.067Z,5.40
2023-05-17T12:00:44.108Z,5.88
2023-05-17T12:03:17.924Z,7.35
2023-05-17T12:05:46.114Z,6.07
2023-05-17T12:08:12.986Z,6.75
2023-05-17T12:10:45.549Z,5.78
2023-05-17T12:13:12.424Z,8.70
2023-05-17T12:15:39.413Z,8.02
2023-05-17T12:18:06.065Z,5.25
2023-05-17T12:20:33.403Z,5.10
2023-05-17T12:23:00.153Z,8.93
2023-05-17T12:25:28.074Z,10.45
2023-05-17T12:28:12.590Z,6.05
2023-05-17T12:30:39.364Z,7.28
2023-05-17T12:33:06.712Z,7.03
2023-05-17T12:35:33.583Z,6.57
2023-05-17T12:38:00.514Z,8.75
2023-05-17T12:40:28.267Z,8.05
2023-05-17T12:43:04.629Z,9.68
2023-05-17T12:45:32.021Z,9.40
2023-05-17T12:48:00.622Z,10.00
2023-05-17T12:50:30.982Z,6.97
2023-05-17T12:52:57.813Z,7.25
2023-05-17T12:55:25.306Z,5.75
2023-05-17T12:57:53.689Z,5.55
2023-05-17T13:00:21.638Z,9.30
2023-05-17T13:02:48.448Z,7.78
2023-05-17T13:05:21.604Z,9.15
2023-05-17T13:07:48.398Z,7.43
2023-05-17T13:10:29.000Z,6.38
2023-05-17T13:12:59.867Z,6.93
2023-05-17T13:15:28.951Z,7.97
2023-05-17T13:17:56.073Z,7.68
2023-05-17T13:20:23.007Z,9.63
2023-05-17T13:22:49.963Z,7.18
2023-05-17T13:25:16.685Z,4.55
2023-05-17T13:27:48.649Z,7.55
2023-05-17T13:30:16.625Z,6.88
2023-05-17T13:32:44.401Z,10.63
2023-05-17T13:35:11.424Z,9.93
2023-05-17T13:37:38.063Z,4.75
2023-05-17T13:40:05.133Z,6.00
2023-05-17T13:42:32.190Z,6.97
2023-05-17T13:44:59.060Z,7.47
2023-05-17T13:47:26.161Z,4.80
2023-05-17T13:49:52.876Z,11.10
2023-05-17T13:52:19.709Z,4.22
2023-05-17T13:54:46.452Z,5.15
2023-05-17T13:57:13.306Z,6.22
2023-05-17T13:59:40.028Z,10.52
2023-05-17T14:02:07.848Z,9.45
2023-05-17T14:04:35.076Z,10.57
2023-05-17T14:07:03.456Z,5.60
2023-05-17T14:09:34.612Z,7.35
2023-05-17T14:12:01.781Z,11.90
2023-05-17T14:14:28.955Z,8.30
2023-05-17T14:16:55.574Z,7.80
2023-05-17T14:19:22.362Z,5.47
2023-05-17T14:21:50.250Z,5.15
2023-05-17T14:24:16.948Z,7.45
2023-05-17T14:26:44.237Z,5.00
2023-05-17T14:29:10.895Z,4.55
2023-05-17T14:31:37.557Z,7.22
2023-05-17T14:34:04.306Z,5.18
2023-05-17T14:36:31.925Z,5.28
2023-05-17T14:38:59.369Z,6.40
2023-05-17T14:41:26.405Z,10.45
2023-05-17T14:43:53.025Z,7.30
2023-05-17T14:46:19.777Z,7.35
2023-05-17T14:48:46.371Z,5.03
2023-05-17T14:51:13.562Z,6.53
2023-05-17T14:53:40.251Z,6.45
2023-05-17T14:56:07.712Z,9.50
2023-05-17T14:58:34.381Z,10.57
2023-05-17T15:01:07.012Z,8.43
2023-05-17T15:03:34.566Z,5.25
2023-05-17T15:06:03.550Z,5.30
2023-05-17T15:08:33.162Z,3.63
2023-05-17T15:10:59.829Z,6.72
2023-05-17T15:13:26.721Z,5.43
2023-05-17T15:15:53.919Z,5.43
2023-05-17T15:18:20.661Z,7.40
2023-05-17T15:20:47.293Z,6.03
2023-05-17T15:23:13.977Z,6.75
2023-05-17T15:25:41.109Z,4.97
2023-05-17T15:28:07.768Z,4.05
2023-05-17T15:30:34.410Z,4.57
2023-05-17T15:33:01.385Z,6.70
2023-05-17T15:35:28.968Z,7.20
2023-05-17T15:37:57.979Z,7.20
2023-05-17T15:40:25.047Z,8.43
2023-05-17T15:42:54.433Z,4.85
2023-05-17T15:45:21.486Z,7.85
2023-05-17T15:47:49.420Z,5.95
2023-05-17T15:50:16.420Z,4.05
2023-05-17T15:52:43.230Z,8.20
2023-05-17T15:55:10.419Z,4.90
2023-05-17T15:57:37.035Z,11.38
2023-05-17T16:00:04.758Z,6.40
2023-05-17T16:02:31.369Z,6.85
2023-05-17T16:04:58.340Z,5.20
2023-05-17T16:07:26.591Z,5.45
2023-05-17T16:09:53.378Z,3.80
2023-05-17T16:12:19.979Z,5.90
2023-05-17T16:14:46.978Z,4.10
2023-05-17T16:17:13.650Z,8.27
2023-05-17T16:19:40.372Z,8.80
2023-05-17T16:22:07.046Z,6.80
2023-05-17T16:24:34.088Z,10.10
2023-05-17T16:27:00.886Z,8.70
2023-05-17T16:29:27.489Z,7.03
2023-05-17T16:31:54.246Z,6.25
2023-05-17T16:34:21.007Z,5.82
2023-05-17T16:36:48.316Z,6.53
2023-05-17T16:39:14.964Z,7.00
2023-05-17T16:41:41.672Z,4.35
2023-05-17T16:44:08.365Z,10.25
2023-05-17T16:46:35.014Z,5.65
2023-05-17T16:49:01.694Z,7.85
2023-05-17T16:51:28.434Z,4.15
2023-05-17T16:53:55.033Z,7.57
2023-05-17T16:56:22.336Z,8.70
2023-05-17T16:58:49.001Z,6.93
2023-05-17T17:01:16.023Z,6.03
2023-05-17T17:03:42.748Z,4.53
2023-05-17T17:06:09.568Z,7.15
2023-05-17T17:08:36.388Z,3.80
2023-05-17T17:11:03.067Z,5.80
2023-05-17T17:13:29.694Z,6.45
2023-05-17T17:15:56.304Z,8.90
2023-05-17T17:18:22.990Z,10.73
2023-05-17T17:20:49.635Z,7.93
2023-05-17T17:23:16.412Z,6.13
2023-05-17T17:25:43.018Z,8.50
2023-05-17T17:28:09.609Z,4.57
2023-05-17T17:30:36.288Z,5.47
2023-05-17T17:33:03.030Z,7.22
2023-05-17T17:35:29.757Z,5.80
2023-05-17T17:37:56.459Z,7.68
2023-05-17T17:40:23.508Z,5.43
2023-05-17T17:42:50.158Z,5.78
2023-05-17T17:45:16.771Z,9.43
2023-05-17T17:47:43.674Z,5.00
2023-05-17T17:50:10.737Z,5.82
2023-05-17T17:52:37.590Z,4.43
2023-05-17T17:55:05.014Z,8.88
2023-05-17T17:57:33.506Z,7.30
2023-05-17T18:02:26.687Z,10.68
2023-05-17T18:04:53.394Z,9.07
2023-05-17T18:07:20.039Z,6.63
2023-05-17T18:09:46.689Z,9.02
2023-05-17T18:12:13.344Z,5.15
2023-05-17T18:14:40.205Z,4.57
2023-05-17T18:17:08.177Z,6.82
2023-05-17T18:19:34.919Z,4.35
2023-05-17T18:22:01.962Z,8.25
2023-05-17T18:24:28.571Z,5.68
2023-05-17T18:26:55.149Z,7.85
2023-05-17T18:29:21.730Z,6.65
2023-05-17T18:31:48.424Z,5.30
2023-05-17T18:34:15.192Z,4.22
2023-05-17T18:36:42.454Z,4.07
2023-05-17T18:39:09.527Z,12.75
2023-05-17T18:41:36.145Z,5.80
2023-05-17T18:44:02.873Z,5.93
2023-05-17T18:46:29.802Z,8.80
2023-05-17T18:48:56.491Z,7.93
2023-05-17T18:51:23.109Z,9.75
2023-05-17T18:53:49.701Z,8.52
2023-05-17T18:56:21.119Z,5.13
2023-05-17T18:58:47.748Z,7.30
2023-05-17T19:01:14.342Z,13.30
2023-05-17T19:03:41.139Z,8.05
2023-05-17T19:06:07.758Z,11.30
2023-05-17T19:08:34.377Z,5.55
2023-05-17T19:11:05.624Z,9.05
2023-05-17T19:13:32.947Z,4.75
2023-05-17T19:16:01.059Z,8.35
2023-05-17T19:18:27.856Z,12.00
2023-05-17T19:20:54.505Z,5.80
2023-05-17T19:23:21.516Z,4.63
2023-05-17T19:25:48.580Z,7.13
2023-05-17T19:28:15.230Z,5.93
2023-05-17T19:30:41.849Z,7.03
2023-05-17T19:33:08.490Z,7.00
2023-05-17T19:35:37.066Z,8.95
2023-05-17T19:40:30.272Z,6.70
2023-05-17T19:42:57.236Z,7.20
2023-05-17T19:45:23.958Z,6.07
2023-05-17T19:47:50.630Z,7.60
2023-05-17T19:50:17.377Z,6.45
2023-05-17T19:52:43.985Z,5.63
2023-05-17T19:55:10.768Z,6.18
2023-05-17T19:57:37.382Z,5.57
2023-05-17T20:00:05.281Z,5.68
2023-05-17T20:02:31.997Z,8.90
2023-05-17T20:05:02.173Z,8.95
2023-05-17T20:07:28.922Z,8.95
2023-05-17T20:09:55.548Z,4.93
2023-05-17T20:12:24.164Z,3.92
2023-05-17T20:14:50.785Z,5.32
2023-05-17T20:17:17.413Z,7.78
2023-05-17T20:19:43.993Z,7.05
2023-05-17T20:22:10.686Z,5.65
2023-05-17T20:24:37.541Z,3.85
2023-05-17T20:27:04.399Z,4.43
2023-05-17T20:29:31.051Z,6.30
2023-05-17T20:31:58.258Z,6.05
2023-05-17T20:34:28.365Z,6.43
2023-05-17T20:36:56.273Z,8.48
2023-05-17T20:39:23.614Z,9.30
2023-05-17T20:41:50.219Z,5.80
2023-05-17T20:44:18.827Z,3.83
2023-05-17T20:46:46.204Z,7.55
2023-05-17T20:49:12.774Z,10.40
2023-05-17T20:51:39.436Z,3.47
2023-05-17T20:54:06.398Z,3.60
2023-05-17T20:56:35.007Z,6.57
2023-05-17T20:59:01.706Z,6.10
2023-05-17T21:01:28.350Z,5.60
2023-05-17T21:03:55.058Z,7.18
2023-05-17T21:06:22.291Z,5.57
2023-05-17T21:08:48.944Z,7.15
2023-05-17T21:11:20.960Z,4.22
2023-05-17T21:13:48.520Z,5.93
2023-05-17T21:16:15.306Z,7.90
2023-05-17T21:18:42.088Z,4.72
2023-05-17T21:21:08.735Z,8.27
2023-05-17T21:23:35.373Z,7.53
2023-05-17T21:26:01.975Z,5.40
2023-05-17T21:28:30.016Z,7.57
2023-05-17T21:30:56.635Z,9.15
2023-05-17T21:33:23.346Z,8.00
2023-05-17T21:35:49.932Z,4.80
2023-05-17T21:38:16.576Z,5.10
2023-05-17T21:40:43.173Z,4.68
2023-05-17T21:43:12.671Z,9.52
2023-05-17T21:45:41.199Z,6.85
2023-05-17T21:50:34.892Z,6.47
2023-05-17T21:53:01.577Z,8.35
2023-05-17T21:55:32.409Z,6.10
2023-05-17T21:58:07.713Z,4.00
2023-05-17T22:00:34.370Z,4.30
2023-05-17T22:03:01.117Z,7.90
2023-05-17T22:05:27.825Z,6.05
2023-05-17T22:07:54.412Z,4.45
2023-05-17T22:10:21.146Z,5.97
2023-05-17T22:12:50.250Z,7.97
2023-05-17T22:15:17.238Z,7.88
2023-05-17T22:17:51.523Z,4.20
2023-05-17T22:20:22.841Z,6.28
2023-05-17T22:22:49.784Z,5.20
2023-05-17T22:25:17.751Z,4.20
2023-05-17T22:27:45.398Z,6.50
2023-05-17T22:30:12.345Z,4.77
2023-05-17T22:32:40.311Z,4.38
2023-05-17T22:35:07.428Z,11.13
2023-05-17T22:37:34.124Z,11.23
2023-05-17T22:40:01.033Z,11.02
2023-05-17T22:42:27.619Z,7.65
2023-05-17T22:44:54.313Z,6.75
2023-05-17T22:47:22.895Z,8.65
2023-05-17T22:49:52.587Z,7.40
2023-05-17T22:52:19.869Z,6.07
2023-05-17T22:54:46.490Z,7.10
2023-05-17T22:57:13.094Z,4.47
2023-05-17T22:59:40.011Z,6.32
2023-05-17T23:02:06.799Z,5.85
2023-05-17T23:04:33.491Z,5.85
2023-05-17T23:07:02.292Z,4.75
2023-05-17T23:09:33.813Z,5.22
2023-05-17T23:12:05.579Z,5.47
2023-05-17T23:14:36.432Z,4.63
2023-05-17T23:17:04.170Z,6.95
2023-05-17T23:19:31.944Z,6.68
2023-05-17T23:22:02.927Z,5.38
2023-05-17T23:24:29.578Z,3.55
2023-05-17T23:26:56.404Z,3.70
2023-05-17T23:29:23.889Z,7.10
2023-05-17T23:31:50.757Z,7.55
2023-05-17T23:34:17.526Z,5.32
2023-05-17T23:36:44.097Z,6.82
2023-05-17T23:39:10.863Z,8.63
2023-05-17T23:41:40.352Z,4.50
2023-05-17T23:44:07.978Z,7.50
2023-05-17T23:46:34.716Z,7.67
2023-05-17T23:49:02.382Z,6.97
2023-05-17T23:51:29.237Z,8.95
2023-05-17T23:53:56.213Z,2.97
2023-05-17T23:56:23.247Z,8.38
2023-05-17T23:58:49.974Z,5.43
